Date,TemperatureHighF,TemperatureAvgF,TemperatureLowF,DewpointHighF,DewpointAvgF,DewpointLowF,HumidityHigh,HumidityAvg,HumidityLow,PressureMaxIn,PressureMinIn,WindSpeedMaxMPH,WindSpeedAvgMPH,GustSpeedMaxMPH,PrecipitationSumIn
2013-3-1,35.5,32.1,29.4,33.2,25.9,22.9,100,78,62,29.69,29.53,9,4,30,0.05
2013-3-2,34.9,30.2,25.4,23.9,22.2,19.6,81,72,56,29.69,29.63,10,5,34,0.03
2013-3-3,33.2,27.5,23.0,23.6,20.7,18.8,84,76,65,29.66,29.58,8,4,26,0.08
2013-3-4,31.3,27.0,23.3,21.1,18.1,15.9,77,69,57,29.81,29.60,16,8,40,0.00
2013-3-5,44.3,31.1,25.0,28.3,21.9,16.7,90,70,42,30.06,29.81,8,3,28,0.07
2013-3-6,34.1,31.6,28.8,29.6,26.7,22.2,92,82,69,30.17,30.04,15,9,40,0.02
2013-3-7,34.4,30.0,27.2,27.9,23.3,20.3,87,76,64,30.15,30.06,13,6,32,0.02
2013-3-8,39.9,31.1,25.1,25.0,21.7,18.1,88,70,42,30.23,30.01,10,4,33,0.11
2013-3-9,55.7,33.5,19.1,22.0,15.7,1.0,87,57,11,30.32,30.21,9,3,24,0.04
2013-3-10,51.3,34.8,19.4,26.8,21.6,16.2,89,63,29,30.39,30.23,12,4,26,0.00
2013-3-11,47.7,38.2,30.7,33.5,26.7,18.0,87,66,31,30.25,30.07,10,2,25,0.00
2013-3-12,46.5,41.5,37.6,46.5,40.1,33.8,100,95,75,30.07,29.67,15,7,32,0.73
2013-3-13,43.6,35.7,26.3,36.8,27.0,17.8,93,73,38,29.76,29.70,15,4,36,0.00
2013-3-14,29.3,24.5,15.9,23.4,12.1,2.0,86,60,39,29.83,29.68,19,8,45,0.00
2013-3-15,34.3,22.9,13.5,25.3,8.5,-0.9,84,55,27,29.85,29.59,17,8,41,0.00
2013-3-16,33.5,25.4,18.4,16.2,8.6,1.6,73,50,27,29.87,29.67,9,4,29,0.00
2013-3-17,30.7,21.9,15.1,12.4,3.7,-5.3,76,48,22,30.31,29.87,19,5,59,0.00
2013-3-18,34.6,20.8,3.9,15.0,-1.9,-8.5,77,41,18,30.45,30.20,8,1,25,0.00
2013-3-19,29.4,26.1,22.1,27.2,23.2,17.4,93,89,67,30.18,29.69,20,10,45,0.00
2013-3-20,32.9,25.3,19.7,19.4,17.2,13.2,89,72,52,29.75,29.65,21,8,48,0.20
2013-3-21,38.9,25.9,13.1,13.5,10.2,2.9,82,54,23,29.76,29.57,15,5,31,0.22
2013-3-22,35.6,25.8,12.3,21.5,13.7,8.1,85,62,34,29.70,29.61,14,5,33,0.05
2013-3-23,38.0,29.1,21.4,20.4,15.8,11.1,79,59,36,29.76,29.63,20,10,76,0.00
2013-3-24,41.8,32.9,24.4,20.0,19.0,16.9,79,58,37,29.82,29.74,12,6,35,0.00
2013-3-25,42.9,29.3,18.0,26.5,20.5,14.5,87,71,44,29.78,29.54,10,3,29,0.00
2013-3-26,46.4,35.4,26.9,26.7,20.3,11.4,87,58,26,29.78,29.56,11,3,32,0.00
2013-3-27,47.3,34.9,20.8,30.0,21.0,17.0,87,61,30,29.88,29.76,14,4,42,0.00
2013-3-28,46.4,37.0,31.6,31.6,28.9,24.9,95,74,43,30.02,29.87,12,2,30,0.02
2013-3-29,49.1,39.2,30.3,34.1,28.7,26.3,87,67,44,30.04,29.98,10,4,28,0.00
2013-3-30,51.3,36.7,26.7,27.3,19.5,5.9,90,59,16,30.09,30.00,13,3,32,0.00
2013-3-31,52.8,36.9,20.5,34.5,19.0,11.3,90,57,20,30.10,29.75,16,4,43,0.14